createdAt,value
2023-11-24T00:00:33.601Z,5.40
2023-11-24T00:03:25.545Z,3.80
2023-11-24T00:05:57.870Z,4.40
2023-11-24T00:08:29.729Z,3.70
2023-11-24T00:11:04.650Z,3.30
2023-11-24T00:13:36.521Z,3.50
2023-11-24T00:16:11.053Z,3.60
2023-11-24T00:18:43.034Z,3.70
2023-11-24T00:21:15.024Z,3.20
2023-11-24T00:23:46.873Z,3.50
2023-11-24T00:26:22.081Z,3.40
2023-11-24T00:28:56.572Z,3.70
2023-11-24T00:31:28.505Z,3.30
2023-11-24T00:34:01.732Z,3.50
2023-11-24T00:36:33.652Z,3.10
2023-11-24T00:39:06.347Z,3.30
2023-11-24T00:41:38.158Z,3.80
2023-11-24T00:44:10.183Z,3.70
2023-11-24T00:46:41.988Z,3.80
2023-11-24T00:49:13.825Z,4.30
2023-11-24T00:51:45.887Z,3.60
2023-11-24T00:54:17.688Z,3.50
2023-11-24T00:56:49.950Z,3.60
2023-11-24T00:59:21.986Z,3.20
2023-11-24T01:01:53.874Z,2.90
2023-11-24T01:04:26.214Z,3.70
2023-11-24T01:06:58.182Z,5.00
2023-11-24T01:09:30.317Z,4.60
2023-11-24T01:12:02.207Z,4.70
2023-11-24T01:14:34.048Z,5.90
2023-11-24T01:17:06.134Z,5.60
2023-11-24T01:19:38.473Z,4.40
2023-11-24T01:22:10.763Z,3.10
2023-11-24T01:24:42.561Z,2.70
2023-11-24T01:27:14.587Z,2.50
2023-11-24T01:29:46.401Z,2.50
2023-11-24T01:32:18.329Z,2.90
2023-11-24T01:34:50.133Z,1.70
2023-11-24T01:37:21.935Z,1.60
2023-11-24T01:39:54.344Z,1.30
2023-11-24T01:42:26.881Z,1.20
2023-11-24T01:44:58.965Z,1.20
2023-11-24T01:47:30.770Z,2.10
2023-11-24T01:50:03.253Z,1.30
2023-11-24T01:52:36.547Z,0.50
2023-11-24T01:55:13.968Z,0.40
2023-11-24T01:57:46.211Z,1.10
2023-11-24T02:00:19.482Z,0.60
2023-11-24T02:02:51.336Z,0.80
2023-11-24T02:05:23.392Z,0.60
2023-11-24T02:07:55.947Z,0.50
2023-11-24T02:10:27.942Z,0.20
2023-11-24T02:12:59.790Z,0.80
2023-11-24T02:15:31.669Z,1.00
2023-11-24T02:18:03.683Z,0.60
2023-11-24T02:20:35.537Z,1.70
2023-11-24T02:23:07.309Z,0.80
2023-11-24T02:25:39.773Z,1.20
2023-11-24T02:28:11.948Z,0.50
2023-11-24T02:30:43.872Z,1.10
2023-11-24T02:33:16.453Z,0.20
2023-11-24T02:35:48.538Z,0.50
2023-11-24T02:38:20.327Z,0.80
2023-11-24T02:40:52.189Z,0.80
2023-11-24T02:43:23.948Z,1.50
2023-11-24T02:45:55.775Z,2.30
2023-11-24T02:48:27.654Z,1.90
2023-11-24T02:50:59.482Z,3.00
2023-11-24T02:53:31.396Z,1.30
2023-11-24T02:56:04.424Z,2.60
2023-11-24T02:58:37.888Z,3.10
2023-11-24T03:01:09.874Z,1.40
2023-11-24T03:03:42.173Z,1.20
2023-11-24T03:06:14.297Z,1.40
2023-11-24T03:08:46.485Z,1.20
2023-11-24T03:11:18.841Z,0.80
2023-11-24T03:13:50.631Z,2.10
2023-11-24T03:16:22.630Z,2.10
2023-11-24T03:18:55.008Z,2.00
2023-11-24T03:21:26.967Z,2.30
2023-11-24T03:23:58.786Z,0.70
2023-11-24T03:26:30.769Z,1.30
2023-11-24T03:29:03.350Z,2.60
2023-11-24T03:31:35.514Z,1.90
2023-11-24T03:34:08.060Z,1.40
2023-11-24T03:36:40.045Z,2.50
2023-11-24T03:39:15.123Z,2.00
2023-11-24T03:41:46.904Z,1.10
2023-11-24T03:44:18.918Z,1.00
2023-11-24T03:46:50.945Z,1.30
2023-11-24T03:49:22.709Z,1.60
2023-11-24T03:51:54.572Z,0.80
2023-11-24T03:54:27.438Z,1.80
2023-11-24T03:57:00.214Z,1.50
2023-11-24T03:59:32.012Z,1.50
2023-11-24T04:02:04.305Z,2.80
2023-11-24T04:04:36.238Z,0.80
2023-11-24T04:07:08.211Z,1.20
2023-11-24T04:09:40.234Z,2.00
2023-11-24T04:12:12.249Z,1.00
2023-11-24T04:14:44.193Z,0.40
2023-11-24T04:17:16.221Z,1.60
2023-11-24T04:19:48.017Z,0.40
2023-11-24T04:22:19.829Z,1.60
2023-11-24T04:24:51.644Z,1.20
2023-11-24T04:27:23.477Z,1.80
2023-11-24T04:29:55.272Z,1.20
2023-11-24T04:32:27.115Z,1.40
2023-11-24T04:34:59.454Z,2.60
2023-11-24T04:37:31.364Z,1.60
2023-11-24T04:40:03.572Z,1.20
2023-11-24T04:42:36.118Z,1.60
2023-11-24T04:45:12.223Z,2.60
2023-11-24T04:47:44.571Z,2.10
2023-11-24T04:50:17.491Z,1.80
2023-11-24T04:52:49.360Z,2.60
2023-11-24T04:55:21.146Z,3.40
2023-11-24T04:57:52.995Z,1.40
2023-11-24T05:00:24.865Z,2.80
2023-11-24T05:02:56.813Z,1.80
2023-11-24T05:05:29.019Z,1.80
2023-11-24T05:08:00.923Z,2.20
2023-11-24T05:10:32.720Z,2.50
2023-11-24T05:13:04.575Z,1.20
2023-11-24T05:15:36.441Z,2.70
2023-11-24T05:18:09.035Z,2.40
2023-11-24T05:20:40.871Z,1.50
2023-11-24T05:23:15.379Z,0.90
2023-11-24T05:25:47.199Z,1.10
2023-11-24T05:28:19.067Z,2.40
2023-11-24T05:30:50.909Z,2.30
2023-11-24T05:33:22.740Z,1.20
2023-11-24T05:35:54.560Z,3.10
2023-11-24T05:38:26.388Z,2.50
2023-11-24T05:40:58.159Z,2.20
2023-11-24T05:43:30.136Z,1.50
2023-11-24T05:46:02.153Z,3.50
2023-11-24T05:48:34.112Z,2.40
2023-11-24T05:51:06.554Z,3.60
2023-11-24T05:53:38.422Z,1.90
2023-11-24T05:56:11.240Z,3.50
2023-11-24T05:58:43.082Z,3.40
2023-11-24T06:01:14.950Z,1.60
2023-11-24T06:03:47.139Z,2.90
2023-11-24T06:06:19.230Z,2.80
2023-11-24T06:08:51.146Z,2.80
2023-11-24T06:11:22.922Z,3.00
2023-11-24T06:13:54.830Z,2.70
2023-11-24T06:16:26.652Z,1.90
2023-11-24T06:19:01.904Z,4.10
2023-11-24T06:21:35.019Z,5.60
2023-11-24T06:24:07.876Z,4.00
2023-11-24T06:26:40.267Z,4.00
2023-11-24T06:29:12.052Z,3.10
2023-11-24T06:31:43.870Z,3.60
2023-11-24T06:34:15.693Z,5.30
2023-11-24T06:36:47.701Z,3.40
2023-11-24T06:39:21.194Z,4.20
2023-11-24T06:41:54.840Z,3.70
2023-11-24T06:44:27.379Z,3.30
2023-11-24T06:47:01.231Z,4.70
2023-11-24T06:49:33.957Z,5.00
2023-11-24T06:52:06.354Z,4.70
2023-11-24T06:54:38.276Z,2.40
2023-11-24T06:57:10.066Z,4.80
2023-11-24T06:59:41.879Z,3.70
2023-11-24T07:02:14.213Z,4.70
2023-11-24T07:04:46.890Z,5.70
2023-11-24T07:07:18.742Z,4.80
2023-11-24T07:09:50.695Z,3.50
2023-11-24T07:12:22.551Z,4.20
2023-11-24T07:14:54.331Z,6.60
2023-11-24T07:17:26.150Z,6.00
2023-11-24T07:19:58.056Z,6.00
2023-11-24T07:22:31.212Z,5.20
2023-11-24T07:25:03.187Z,8.60
2023-11-24T07:27:35.127Z,4.00
2023-11-24T07:30:08.649Z,5.20
2023-11-24T07:32:40.548Z,4.60
2023-11-24T07:35:15.184Z,6.00
2023-11-24T07:37:47.540Z,6.40
2023-11-24T07:40:19.513Z,9.00
2023-11-24T07:42:51.416Z,4.40
2023-11-24T07:45:23.616Z,7.50
2023-11-24T07:47:55.446Z,8.00
2023-11-24T07:50:27.315Z,7.10
2023-11-24T07:52:59.168Z,7.30
2023-11-24T07:55:31.357Z,5.30
2023-11-24T07:58:03.268Z,5.00
2023-11-24T08:00:35.562Z,8.00
2023-11-24T08:03:07.627Z,6.00
2023-11-24T08:05:40.040Z,6.80
2023-11-24T08:08:12.228Z,8.80
2023-11-24T08:10:45.117Z,7.30
2023-11-24T08:13:17.008Z,6.80
2023-11-24T08:15:48.968Z,6.40
2023-11-24T08:18:20.832Z,7.40
2023-11-24T08:20:54.022Z,5.50
2023-11-24T08:23:25.880Z,5.40
2023-11-24T08:25:57.683Z,5.20
2023-11-24T08:28:29.682Z,8.00
2023-11-24T08:31:02.856Z,6.80
2023-11-24T08:33:34.767Z,5.10
2023-11-24T08:36:07.986Z,6.80
2023-11-24T08:38:39.890Z,7.70
2023-11-24T08:41:26.576Z,4.40
2023-11-24T08:44:07.420Z,3.60
2023-11-24T08:46:39.446Z,6.00
2023-11-24T08:49:12.492Z,3.50
2023-11-24T08:51:44.814Z,7.60
2023-11-24T08:54:16.795Z,3.40
2023-11-24T08:56:48.628Z,5.30
2023-11-24T08:59:20.505Z,3.80
2023-11-24T09:01:52.686Z,2.90
2023-11-24T09:04:27.966Z,3.80
2023-11-24T09:06:59.787Z,4.30
2023-11-24T09:09:34.490Z,3.60
2023-11-24T09:12:07.738Z,3.50
2023-11-24T09:14:41.527Z,4.10
2023-11-24T09:17:13.892Z,5.30
2023-11-24T09:19:45.712Z,4.20
2023-11-24T09:22:18.165Z,5.50
2023-11-24T09:24:50.533Z,4.10
2023-11-24T09:27:22.782Z,3.10
2023-11-24T09:29:54.645Z,4.30
2023-11-24T09:32:26.929Z,4.30
2023-11-24T09:34:59.011Z,5.80
2023-11-24T09:37:31.000Z,4.40
2023-11-24T09:40:03.931Z,5.10
2023-11-24T09:42:45.564Z,5.30
2023-11-24T09:45:20.673Z,6.80
2023-11-24T09:47:53.878Z,5.50
2023-11-24T09:50:28.055Z,3.70
2023-11-24T09:53:00.617Z,5.00
2023-11-24T09:55:32.473Z,4.70
2023-11-24T09:58:04.370Z,8.30
2023-11-24T10:00:36.386Z,5.50
2023-11-24T10:03:10.686Z,6.30
2023-11-24T10:05:42.635Z,4.60
2023-11-24T10:08:14.437Z,5.90
2023-11-24T10:10:46.437Z,4.00
2023-11-24T10:13:18.676Z,6.90
2023-11-24T10:15:54.668Z,7.60
2023-11-24T10:18:29.354Z,7.10
2023-11-24T10:21:01.521Z,6.40
2023-11-24T10:23:33.592Z,4.10
2023-11-24T10:26:15.327Z,3.60
2023-11-24T10:28:47.459Z,6.40
2023-11-24T10:31:20.865Z,5.70
2023-11-24T10:33:53.250Z,4.70
2023-11-24T10:36:27.051Z,7.00
2023-11-24T10:44:05.412Z,4.00
2023-11-24T10:46:45.122Z,3.90
2023-11-24T10:49:27.170Z,4.50
2023-11-24T10:52:02.842Z,4.10
2023-11-24T10:54:39.896Z,6.40
2023-11-24T10:57:14.542Z,5.60
2023-11-24T10:59:47.559Z,5.80
2023-11-24T11:02:20.113Z,5.80
2023-11-24T11:05:03.138Z,5.00
2023-11-24T11:07:53.982Z,3.80
2023-11-24T11:10:32.126Z,3.90
2023-11-24T11:13:05.397Z,4.70
2023-11-24T11:15:39.675Z,3.70
2023-11-24T11:18:15.398Z,3.80
2023-11-24T11:20:47.604Z,5.80
2023-11-24T11:23:19.374Z,5.50
2023-11-24T11:25:54.849Z,5.10
2023-11-24T11:28:40.583Z,3.50
2023-11-24T11:31:29.095Z,3.30
2023-11-24T11:34:14.893Z,4.30
2023-11-24T11:36:55.672Z,3.50
2023-11-24T11:39:31.503Z,3.90
2023-11-24T11:42:03.592Z,2.40
2023-11-24T11:44:40.743Z,2.70
2023-11-24T11:47:25.611Z,3.10
2023-11-24T11:49:58.961Z,3.70
2023-11-24T11:52:32.202Z,2.40
2023-11-24T11:55:06.704Z,2.30
2023-11-24T11:57:38.536Z,3.00
2023-11-24T12:00:14.658Z,2.80
2023-11-24T12:02:49.480Z,2.80
2023-11-24T12:05:23.022Z,3.50
2023-11-24T12:07:55.704Z,3.10
2023-11-24T12:10:30.867Z,2.20
2023-11-24T12:13:06.258Z,3.50
2023-11-24T12:15:39.114Z,2.50
2023-11-24T12:18:17.181Z,4.70
2023-11-24T12:20:49.949Z,3.30
2023-11-24T12:23:24.626Z,7.70
2023-11-24T12:25:56.616Z,4.40
2023-11-24T12:28:28.450Z,4.70
2023-11-24T12:31:04.128Z,8.00
2023-11-24T12:33:36.384Z,6.50
2023-11-24T12:36:10.006Z,5.00
2023-11-24T12:38:41.791Z,4.20
2023-11-24T12:41:13.847Z,4.10
2023-11-24T12:43:51.158Z,3.30
2023-11-24T12:46:25.110Z,5.90
2023-11-24T12:49:05.942Z,6.80
2023-11-24T12:51:37.934Z,20.70
2023-11-24T12:54:10.039Z,9.10
2023-11-24T12:56:41.878Z,6.70
2023-11-24T12:59:14.129Z,4.70
2023-11-24T13:01:45.955Z,5.30
2023-11-24T13:04:17.925Z,6.60
2023-11-24T13:06:50.869Z,2.80
2023-11-24T13:09:23.789Z,6.10
2023-11-24T13:11:59.272Z,4.70
2023-11-24T13:14:34.396Z,3.70
2023-11-24T13:17:06.961Z,7.40
2023-11-24T13:19:38.816Z,4.30
2023-11-24T13:22:10.992Z,4.00
2023-11-24T13:24:43.191Z,4.90
2023-11-24T13:27:15.092Z,3.50
2023-11-24T13:29:47.785Z,4.70
2023-11-24T13:32:19.622Z,5.80
2023-11-24T13:34:51.832Z,4.20
2023-11-24T13:37:23.675Z,4.50
2023-11-24T13:39:55.906Z,6.00
2023-11-24T13:42:28.914Z,2.90
2023-11-24T13:45:00.750Z,4.00
2023-11-24T13:47:33.052Z,4.60
2023-11-24T13:50:05.973Z,3.30
2023-11-24T13:52:37.889Z,4.20
2023-11-24T13:55:12.388Z,5.10
2023-11-24T13:57:45.831Z,3.70
2023-11-24T14:00:20.549Z,3.50
2023-11-24T14:02:52.490Z,6.10
2023-11-24T14:05:24.404Z,6.10
2023-11-24T14:07:56.232Z,9.40
2023-11-24T14:10:28.455Z,8.00
2023-11-24T14:13:00.346Z,5.00
2023-11-24T14:15:32.170Z,2.90
2023-11-24T14:18:07.947Z,2.60
2023-11-24T14:20:41.197Z,4.10
2023-11-24T14:23:14.462Z,8.50
2023-11-24T14:25:46.258Z,6.50
2023-11-24T14:28:18.934Z,7.20
2023-11-24T14:30:52.474Z,7.30
2023-11-24T14:33:26.097Z,6.30
2023-11-24T14:35:57.861Z,9.50
2023-11-24T14:38:31.100Z,9.80
2023-11-24T14:41:08.414Z,6.10
2023-11-24T14:43:41.407Z,8.10
2023-11-24T14:46:13.656Z,8.00
2023-11-24T14:48:46.103Z,5.90
2023-11-24T14:51:18.623Z,4.50
2023-11-24T14:53:51.535Z,4.40
2023-11-24T14:56:24.464Z,4.30
2023-11-24T14:58:56.284Z,3.40
2023-11-24T15:01:33.536Z,4.40
2023-11-24T15:04:09.010Z,3.10
2023-11-24T15:06:40.973Z,5.00
2023-11-24T15:09:12.786Z,6.10
2023-11-24T15:11:45.178Z,11.70
2023-11-24T15:14:17.236Z,20.50
2023-11-24T15:16:55.907Z,26.20
2023-11-24T15:19:28.133Z,20.90
2023-11-24T15:22:04.798Z,18.30
2023-11-24T15:24:37.837Z,20.50
2023-11-24T15:27:09.739Z,16.00
2023-11-24T15:29:41.927Z,12.60
2023-11-24T15:32:19.933Z,11.60
2023-11-24T15:34:52.799Z,16.00
2023-11-24T15:37:24.986Z,24.10
2023-11-24T15:39:59.860Z,19.90
2023-11-24T15:42:32.836Z,23.20
2023-11-24T15:45:06.840Z,19.00
2023-11-24T15:47:40.581Z,14.70
2023-11-24T15:50:15.755Z,27.20
2023-11-24T15:52:47.873Z,24.20
2023-11-24T15:55:24.887Z,29.50
2023-11-24T15:57:56.792Z,21.40
2023-11-24T16:00:33.318Z,19.30
2023-11-24T16:03:05.273Z,15.60
2023-11-24T16:05:41.895Z,14.80
2023-11-24T16:08:14.442Z,17.10
2023-11-24T16:10:47.898Z,21.90
2023-11-24T16:15:53.101Z,17.60
2023-11-24T16:18:34.931Z,17.40
2023-11-24T16:21:08.480Z,23.70
2023-11-24T16:23:40.344Z,20.70
2023-11-24T16:26:12.234Z,16.00
2023-11-24T16:28:44.857Z,12.20
2023-11-24T16:31:16.942Z,16.10
2023-11-24T16:33:48.934Z,17.10
2023-11-24T16:36:21.703Z,20.80
2023-11-24T16:38:54.127Z,21.40
2023-11-24T16:41:26.045Z,23.70
2023-11-24T16:44:01.157Z,25.10
2023-11-24T16:46:33.243Z,27.10
2023-11-24T16:49:06.701Z,20.10
2023-11-24T16:51:40.189Z,23.60
2023-11-24T16:54:12.041Z,26.50
2023-11-24T16:56:43.829Z,26.20
2023-11-24T16:59:19.420Z,21.80
2023-11-24T17:01:51.662Z,17.80
2023-11-24T17:04:25.093Z,21.60
2023-11-24T17:06:57.518Z,17.00
2023-11-24T17:09:29.399Z,25.60
2023-11-24T17:12:01.275Z,25.10
2023-11-24T17:14:33.123Z,29.00
2023-11-24T17:17:06.795Z,32.60
2023-11-24T17:22:09.185Z,41.70
2023-11-24T17:24:41.057Z,49.50
2023-11-24T17:27:14.590Z,44.10
2023-11-24T17:29:46.444Z,37.10
2023-11-24T17:32:18.814Z,63.10
2023-11-24T17:34:50.732Z,40.10
2023-11-24T17:37:22.602Z,33.20
2023-11-24T17:39:54.475Z,29.70
2023-11-24T17:42:26.310Z,22.00
2023-11-24T17:44:59.893Z,21.80
2023-11-24T17:50:02.315Z,17.80
2023-11-24T17:52:34.116Z,13.80
2023-11-24T17:55:06.655Z,23.00
2023-11-24T17:57:38.939Z,19.70
2023-11-24T18:00:14.482Z,22.70
2023-11-24T18:02:46.417Z,20.10
2023-11-24T18:05:18.433Z,19.30
2023-11-24T18:07:50.256Z,22.20
2023-11-24T18:10:22.772Z,21.00
2023-11-24T18:12:55.632Z,23.10
2023-11-24T18:15:28.298Z,25.00
2023-11-24T18:18:00.651Z,26.40
2023-11-24T18:20:34.679Z,23.70
2023-11-24T18:23:06.519Z,20.50
2023-11-24T18:25:40.162Z,19.80
2023-11-24T18:28:15.181Z,21.30
2023-11-24T18:30:47.084Z,19.40
2023-11-24T18:33:20.049Z,16.10
2023-11-24T18:35:52.561Z,13.90
2023-11-24T18:38:25.213Z,16.50
2023-11-24T18:40:58.660Z,22.50
2023-11-24T18:43:37.216Z,26.40
2023-11-24T18:46:12.192Z,22.50
2023-11-24T18:48:44.054Z,30.00
2023-11-24T18:51:15.972Z,24.10
2023-11-24T18:53:47.844Z,27.80
2023-11-24T18:56:23.343Z,26.30
2023-11-24T18:58:55.934Z,26.10
2023-11-24T19:01:27.784Z,21.60
2023-11-24T19:03:59.712Z,15.90
2023-11-24T19:06:32.701Z,28.30
2023-11-24T19:09:04.676Z,27.40
2023-11-24T19:11:36.476Z,22.00
2023-11-24T19:14:09.232Z,23.50
2023-11-24T19:16:45.107Z,24.70
2023-11-24T19:19:17.667Z,23.10
2023-11-24T19:21:49.582Z,20.60
2023-11-24T19:24:21.381Z,20.70
2023-11-24T19:26:54.461Z,19.20
2023-11-24T19:29:26.331Z,17.40
2023-11-24T19:31:58.233Z,16.60
2023-11-24T19:34:30.131Z,22.40
2023-11-24T19:37:01.999Z,20.70
2023-11-24T19:39:36.499Z,20.70
2023-11-24T19:42:09.002Z,19.10
2023-11-24T19:44:40.956Z,19.40
2023-11-24T19:47:12.844Z,18.40
2023-11-24T19:49:47.068Z,18.20
2023-11-24T19:52:19.225Z,17.50
2023-11-24T19:54:51.244Z,15.70
2023-11-24T19:57:23.449Z,13.30
2023-11-24T19:59:56.672Z,9.70
2023-11-24T20:02:28.658Z,12.00
2023-11-24T20:05:00.585Z,11.80
2023-11-24T20:07:32.496Z,14.40
2023-11-24T20:10:06.230Z,16.80
2023-11-24T20:12:38.330Z,13.90
2023-11-24T20:15:11.388Z,15.70
2023-11-24T20:17:44.455Z,14.40
2023-11-24T20:20:16.457Z,13.50
2023-11-24T20:22:48.372Z,18.60
2023-11-24T20:25:20.343Z,15.30
2023-11-24T20:27:52.233Z,19.90
2023-11-24T20:30:24.037Z,15.50
2023-11-24T20:32:57.385Z,11.70
2023-11-24T20:35:30.674Z,12.40
2023-11-24T20:38:03.420Z,12.60
2023-11-24T20:40:35.267Z,19.40
2023-11-24T20:43:07.333Z,16.70
2023-11-24T20:45:41.767Z,19.50
2023-11-24T20:48:17.579Z,18.70
2023-11-24T20:50:50.293Z,17.20
2023-11-24T20:53:22.112Z,20.30
2023-11-24T20:55:53.961Z,21.80
2023-11-24T20:58:25.935Z,18.50
2023-11-24T21:00:57.867Z,17.80
2023-11-24T21:03:30.359Z,19.00
2023-11-24T21:06:02.241Z,18.40
2023-11-24T21:08:34.077Z,21.40
2023-11-24T21:11:05.966Z,17.10
2023-11-24T21:13:38.191Z,15.10
2023-11-24T21:16:10.593Z,16.60
2023-11-24T21:18:43.917Z,16.70
2023-11-24T21:21:17.176Z,20.20
2023-11-24T21:23:48.981Z,17.60
2023-11-24T21:26:21.434Z,20.90
2023-11-24T21:28:53.302Z,16.80
2023-11-24T21:31:25.164Z,19.10
2023-11-24T21:33:57.213Z,17.80
2023-11-24T21:36:29.075Z,17.50
2023-11-24T21:39:03.120Z,18.50
2023-11-24T21:41:37.783Z,19.10
2023-11-24T21:44:09.816Z,21.60
2023-11-24T21:46:41.739Z,21.00
2023-11-24T21:49:13.624Z,19.90
2023-11-24T21:51:45.514Z,19.50
2023-11-24T21:54:17.358Z,17.70
2023-11-24T21:56:49.145Z,14.60
2023-11-24T21:59:20.937Z,16.10
2023-11-24T22:01:56.460Z,14.30
2023-11-24T22:04:28.524Z,13.30
2023-11-24T22:07:00.525Z,10.80
2023-11-24T22:09:33.089Z,12.00
2023-11-24T22:12:05.181Z,12.60
2023-11-24T22:14:37.601Z,13.30
2023-11-24T22:17:09.674Z,11.40
2023-11-24T22:19:42.178Z,13.80
2023-11-24T22:22:14.071Z,12.80
2023-11-24T22:24:45.937Z,12.30
2023-11-24T22:27:18.389Z,12.20
2023-11-24T22:29:58.071Z,11.60
2023-11-24T22:32:36.680Z,12.00
2023-11-24T22:35:10.049Z,12.40
2023-11-24T22:37:41.890Z,9.10
2023-11-24T22:40:14.504Z,10.70
2023-11-24T22:42:46.525Z,8.50
2023-11-24T22:45:18.437Z,9.60
2023-11-24T22:47:51.880Z,11.60
2023-11-24T22:50:23.744Z,8.30
2023-11-24T22:52:55.529Z,13.90
2023-11-24T22:55:27.377Z,11.00
2023-11-24T22:57:59.721Z,11.30
2023-11-24T23:00:37.025Z,13.00
2023-11-24T23:03:09.230Z,10.60
2023-11-24T23:05:43.383Z,13.40
2023-11-24T23:08:16.330Z,14.20
2023-11-24T23:10:49.223Z,18.00
2023-11-24T23:13:21.572Z,13.60
2023-11-24T23:15:53.435Z,13.40
2023-11-24T23:18:25.319Z,17.30
2023-11-24T23:20:57.247Z,16.30
2023-11-24T23:23:29.073Z,11.00
2023-11-24T23:26:00.907Z,13.60
2023-11-24T23:28:33.033Z,11.50
2023-11-24T23:31:07.227Z,15.80
2023-11-24T23:33:39.840Z,13.40
2023-11-24T23:36:14.312Z,115.50
2023-11-24T23:38:47.695Z,31.80
2023-11-24T23:41:22.125Z,17.10
2023-11-24T23:43:54.255Z,29.90
2023-11-24T23:46:26.256Z,18.30
2023-11-24T23:48:58.747Z,14.40
2023-11-24T23:51:30.566Z,15.90
2023-11-24T23:54:04.174Z,24.60
2023-11-24T23:59:06.553Z,14.60
